createdAt,value
2023-04-20T00:01:38.708Z,58.33
2023-04-20T00:04:25.632Z,58.75
2023-04-20T00:07:12.957Z,58.76
2023-04-20T00:10:00.594Z,58.69
2023-04-20T00:12:47.439Z,58.92
2023-04-20T00:15:34.287Z,58.40
2023-04-20T00:18:21.170Z,58.25
2023-04-20T00:21:09.254Z,58.83
2023-04-20T00:23:56.164Z,58.42
2023-04-20T00:26:43.001Z,58.31
2023-04-20T00:29:29.871Z,58.53
2023-04-20T00:32:16.747Z,58.33
2023-04-20T00:35:04.279Z,58.87
2023-04-20T00:37:51.225Z,58.81
2023-04-20T00:40:38.139Z,58.49
2023-04-20T00:43:25.034Z,58.16
2023-04-20T00:46:12.147Z,58.22
2023-04-20T00:48:59.426Z,58.38
2023-04-20T00:51:46.298Z,58.97
2023-04-20T00:54:33.204Z,58.32
2023-04-20T00:57:24.098Z,58.56
2023-04-20T01:00:11.646Z,58.77
2023-04-20T01:02:58.784Z,58.23
2023-04-20T01:05:45.705Z,58.73
2023-04-20T01:08:32.622Z,58.32
2023-04-20T01:11:19.504Z,58.26
2023-04-20T01:14:06.620Z,58.19
2023-04-20T01:16:53.477Z,58.12
2023-04-20T01:19:40.953Z,58.33
2023-04-20T01:22:27.822Z,58.12
2023-04-20T01:25:15.924Z,58.65
2023-04-20T01:28:02.811Z,58.31
2023-04-20T01:30:49.690Z,58.35
2023-04-20T01:33:36.771Z,58.04
2023-04-20T01:36:23.738Z,58.47
2023-04-20T01:39:11.576Z,58.20
2023-04-20T01:41:58.484Z,58.46
2023-04-20T01:44:45.383Z,58.79
2023-04-20T01:47:32.756Z,58.10
2023-04-20T01:50:19.612Z,58.73
2023-04-20T01:53:06.466Z,58.17
2023-04-20T01:55:53.342Z,58.44
2023-04-20T01:58:40.350Z,58.26
2023-04-20T02:01:27.355Z,57.91
2023-04-20T02:04:14.263Z,58.73
2023-04-20T02:07:01.241Z,58.27
2023-04-20T02:09:48.113Z,58.11
2023-04-20T02:12:35.472Z,58.33
2023-04-20T02:15:22.361Z,57.94
2023-04-20T02:18:09.635Z,58.40
2023-04-20T02:20:56.536Z,58.32
2023-04-20T02:23:43.470Z,58.14
2023-04-20T02:26:30.583Z,58.18
2023-04-20T02:29:17.859Z,58.15
2023-04-20T02:32:05.341Z,58.54
2023-04-20T02:34:52.183Z,58.01
2023-04-20T02:37:39.071Z,58.12
2023-04-20T02:40:26.104Z,58.11
2023-04-20T02:43:13.028Z,57.79
2023-04-20T02:45:59.930Z,57.80
2023-04-20T02:48:46.856Z,58.10
2023-04-20T02:51:34.031Z,58.42
2023-04-20T02:54:20.894Z,58.20
2023-04-20T02:57:07.805Z,58.03
2023-04-20T02:59:54.686Z,58.06
2023-04-20T03:02:41.702Z,57.92
2023-04-20T03:05:28.658Z,58.16
2023-04-20T03:08:15.860Z,58.02
2023-04-20T03:11:02.956Z,57.79
2023-04-20T03:13:50.203Z,58.15
2023-04-20T03:16:37.141Z,58.22
2023-04-20T03:19:24.478Z,58.24
2023-04-20T03:22:11.324Z,57.57
2023-04-20T03:24:58.257Z,58.19
2023-04-20T03:27:47.133Z,58.22
2023-04-20T03:30:34.043Z,58.10
2023-04-20T03:33:21.140Z,57.72
2023-04-20T03:36:08.121Z,58.07
2023-04-20T03:38:54.989Z,58.00
2023-04-20T03:41:41.913Z,57.99
2023-04-20T03:44:28.823Z,58.31
2023-04-20T03:47:15.973Z,57.96
2023-04-20T03:50:03.279Z,58.16
2023-04-20T03:52:50.339Z,58.12
2023-04-20T03:55:37.252Z,58.07
2023-04-20T03:58:24.164Z,58.37
2023-04-20T04:01:13.206Z,58.27
2023-04-20T04:04:00.525Z,58.03
2023-04-20T04:06:47.597Z,58.18
2023-04-20T04:09:34.462Z,58.17
2023-04-20T04:12:21.514Z,57.87
2023-04-20T04:15:08.899Z,58.20
2023-04-20T04:17:56.051Z,57.97
2023-04-20T04:20:43.126Z,58.23
2023-04-20T04:23:30.091Z,57.79
2023-04-20T04:26:18.247Z,57.88
2023-04-20T04:29:05.094Z,58.16
2023-04-20T04:31:53.205Z,58.03
2023-04-20T04:34:40.657Z,58.03
2023-04-20T04:37:28.125Z,58.22
2023-04-20T04:40:15.053Z,58.05
2023-04-20T04:43:02.721Z,58.12
2023-04-20T04:45:49.911Z,58.03
2023-04-20T04:48:37.858Z,58.07
2023-04-20T04:51:24.728Z,57.91
2023-04-20T04:54:11.577Z,58.18
2023-04-20T04:56:58.477Z,58.01
2023-04-20T04:59:45.653Z,57.89
2023-04-20T05:02:32.822Z,57.96
2023-04-20T05:05:20.412Z,58.19
2023-04-20T05:08:07.322Z,58.19
2023-04-20T05:10:54.160Z,57.84
2023-04-20T05:13:41.573Z,58.00
2023-04-20T05:16:28.419Z,58.10
2023-04-20T05:19:15.495Z,58.07
2023-04-20T05:22:02.742Z,58.04
2023-04-20T05:24:49.583Z,58.24
2023-04-20T05:27:36.443Z,58.11
2023-04-20T05:30:23.364Z,58.09
2023-04-20T05:33:10.308Z,58.32
2023-04-20T05:35:57.703Z,58.08
2023-04-20T05:38:44.614Z,57.78
2023-04-20T05:41:31.532Z,57.60
2023-04-20T05:44:22.133Z,58.21
2023-04-20T05:47:15.873Z,58.64
2023-04-20T05:50:02.849Z,58.44
2023-04-20T05:52:49.774Z,58.41
2023-04-20T05:55:36.693Z,58.34
2023-04-20T05:58:23.553Z,58.06
2023-04-20T06:01:10.446Z,58.33
2023-04-20T06:03:57.454Z,58.00
2023-04-20T06:06:44.617Z,58.21
2023-04-20T06:09:31.468Z,58.42
2023-04-20T06:12:18.285Z,58.69
2023-04-20T06:15:08.395Z,58.56
2023-04-20T06:17:55.555Z,58.85
2023-04-20T06:20:45.448Z,58.87
2023-04-20T06:23:32.436Z,58.70
2023-04-20T06:26:19.251Z,58.69
2023-04-20T06:29:06.312Z,58.84
2023-04-20T06:31:53.288Z,58.75
2023-04-20T06:34:40.504Z,58.76
2023-04-20T06:37:28.081Z,59.30
2023-04-20T06:40:16.143Z,59.04
2023-04-20T06:43:03.214Z,58.81
2023-04-20T06:45:50.056Z,58.63
2023-04-20T06:48:36.951Z,58.90
2023-04-20T06:51:23.809Z,58.89
2023-04-20T06:54:10.652Z,58.70
2023-04-20T06:56:57.700Z,58.98
2023-04-20T06:59:44.505Z,58.99
2023-04-20T07:02:42.364Z,58.89
2023-04-20T07:05:29.557Z,58.64
2023-04-20T07:08:17.009Z,58.89
2023-04-20T07:11:03.913Z,58.74
2023-04-20T07:13:50.719Z,58.72
2023-04-20T07:16:37.616Z,59.09
2023-04-20T07:19:24.462Z,58.95
2023-04-20T07:22:11.340Z,58.88
2023-04-20T07:24:58.251Z,58.92
2023-04-20T07:27:45.264Z,58.76
2023-04-20T07:30:32.310Z,59.07
2023-04-20T07:33:19.162Z,58.95
2023-04-20T07:36:06.447Z,59.07
2023-04-20T07:38:53.386Z,59.03
2023-04-20T07:41:40.301Z,59.02
2023-04-20T07:44:27.226Z,58.98
2023-04-20T07:47:14.327Z,59.17
2023-04-20T07:50:01.121Z,59.00
2023-04-20T07:52:47.990Z,59.22
2023-04-20T07:55:34.940Z,59.10
2023-04-20T07:58:21.731Z,59.41
2023-04-20T08:01:08.842Z,59.28
2023-04-20T08:03:56.203Z,59.33
2023-04-20T08:06:43.241Z,59.81
2023-04-20T08:09:30.325Z,59.64
2023-04-20T08:12:17.164Z,59.47
2023-04-20T08:15:06.421Z,59.61
2023-04-20T08:17:53.447Z,59.77
2023-04-20T08:20:40.702Z,59.64
2023-04-20T08:23:30.171Z,59.89
2023-04-20T08:26:20.774Z,59.90
2023-04-20T08:29:07.676Z,59.95
2023-04-20T08:31:54.589Z,59.74
2023-04-20T08:34:41.525Z,59.87
2023-04-20T08:37:29.170Z,60.18
2023-04-20T08:40:19.921Z,60.16
2023-04-20T08:43:06.768Z,60.20
2023-04-20T08:45:59.020Z,60.01
2023-04-20T08:48:48.497Z,60.32
2023-04-20T08:51:35.533Z,60.39
2023-04-20T08:54:24.248Z,60.23
2023-04-20T08:57:11.556Z,60.22
2023-04-20T08:59:58.556Z,60.17
2023-04-20T09:02:50.825Z,60.51
2023-04-20T09:05:39.987Z,60.48
2023-04-20T09:08:40.332Z,60.41
2023-04-20T09:11:30.435Z,60.63
2023-04-20T09:14:18.323Z,60.58
2023-04-20T09:17:05.597Z,60.68
2023-04-20T09:19:53.309Z,60.29
2023-04-20T09:22:41.114Z,60.79
2023-04-20T09:25:32.305Z,60.62
2023-04-20T09:28:19.582Z,60.40
2023-04-20T09:31:06.502Z,60.40
2023-04-20T09:34:03.311Z,60.43
2023-04-20T09:36:52.048Z,60.53
2023-04-20T09:39:43.356Z,60.47
2023-04-20T09:42:32.104Z,60.45
2023-04-20T09:45:18.951Z,60.92
2023-04-20T09:48:08.961Z,60.30
2023-04-20T09:50:56.574Z,60.74
2023-04-20T09:53:43.724Z,60.36
2023-04-20T09:56:31.020Z,60.28
2023-04-20T09:59:19.582Z,60.53
2023-04-20T10:02:12.539Z,60.27
2023-04-20T10:04:59.935Z,60.51
2023-04-20T10:07:46.808Z,60.74
2023-04-20T10:10:44.022Z,60.46
2023-04-20T10:13:34.216Z,60.72
2023-04-20T10:16:21.468Z,60.38
2023-04-20T10:19:09.173Z,60.30
2023-04-20T10:21:56.237Z,60.57
2023-04-20T10:24:43.109Z,60.38
2023-04-20T10:27:32.260Z,60.38
2023-04-20T10:30:19.716Z,60.67
2023-04-20T10:33:09.881Z,60.53
2023-04-20T10:35:58.965Z,60.71
2023-04-20T10:38:45.817Z,60.27
2023-04-20T10:41:32.759Z,60.33
2023-04-20T10:44:19.924Z,60.34
2023-04-20T10:47:06.847Z,60.57
2023-04-20T10:49:53.726Z,60.40
2023-04-20T10:52:42.345Z,60.69
2023-04-20T10:55:29.352Z,58.14
2023-04-20T10:58:25.759Z,57.77
2023-04-20T11:01:12.805Z,58.02
2023-04-20T11:04:00.223Z,58.86
2023-04-20T11:06:48.448Z,58.98
2023-04-20T11:09:36.259Z,59.45
2023-04-20T11:12:23.428Z,59.64
2023-04-20T11:15:10.482Z,59.77
2023-04-20T11:18:07.176Z,60.34
2023-04-20T11:20:55.159Z,60.37
2023-04-20T11:23:43.573Z,60.89
2023-04-20T11:26:43.506Z,61.20
2023-04-20T11:29:30.344Z,60.36
2023-04-20T11:32:18.442Z,60.53
2023-04-20T11:35:07.830Z,60.90
2023-04-20T11:37:57.506Z,60.22
2023-04-20T11:40:44.405Z,60.14
2023-04-20T11:43:32.276Z,60.34
2023-04-20T11:46:23.097Z,60.33
2023-04-20T11:49:09.982Z,61.25
2023-04-20T11:51:56.820Z,59.87
2023-04-20T11:54:43.708Z,59.52
2023-04-20T11:57:30.724Z,60.21
2023-04-20T12:00:18.172Z,60.12
2023-04-20T12:03:05.431Z,60.30
2023-04-20T12:05:52.553Z,60.07
2023-04-20T12:08:39.494Z,60.80
2023-04-20T12:11:26.575Z,60.91
2023-04-20T12:14:13.710Z,60.57
2023-04-20T12:17:02.522Z,60.99
2023-04-20T12:19:49.820Z,60.54
2023-04-20T12:22:36.680Z,61.22
2023-04-20T12:25:23.549Z,60.94
2023-04-20T12:28:10.795Z,60.81
2023-04-20T12:30:57.978Z,60.40
2023-04-20T12:33:45.047Z,59.87
2023-04-20T12:36:32.548Z,59.58
2023-04-20T12:39:19.428Z,60.31
2023-04-20T12:42:06.316Z,60.05
2023-04-20T12:44:54.250Z,60.00
2023-04-20T12:47:41.128Z,59.87
2023-04-20T12:50:28.273Z,59.96
2023-04-20T12:53:15.104Z,59.38
2023-04-20T12:56:02.016Z,59.70
2023-04-20T12:58:49.004Z,59.62
2023-04-20T13:01:35.946Z,59.33
2023-04-20T13:04:24.536Z,59.72
2023-04-20T13:07:12.274Z,59.92
2023-04-20T13:10:00.484Z,59.49
2023-04-20T13:12:47.346Z,58.84
2023-04-20T13:15:39.004Z,58.55
2023-04-20T13:18:26.636Z,58.57
2023-04-20T13:21:13.517Z,59.77
2023-04-20T13:24:00.634Z,61.20
2023-04-20T13:26:47.502Z,63.00
2023-04-20T13:29:34.539Z,63.47
2023-04-20T13:32:21.414Z,62.99
2023-04-20T13:35:08.559Z,63.59
2023-04-20T13:37:55.520Z,64.44
2023-04-20T13:40:44.230Z,64.04
2023-04-20T13:43:31.069Z,64.27
2023-04-20T13:46:17.957Z,64.33
2023-04-20T13:49:04.796Z,64.43
2023-04-20T13:51:51.699Z,64.47
2023-04-20T13:54:38.577Z,64.80
2023-04-20T13:57:25.431Z,64.89
2023-04-20T14:00:12.969Z,64.57
2023-04-20T14:02:59.996Z,64.74
2023-04-20T14:05:47.113Z,65.57
2023-04-20T14:08:34.033Z,64.57
2023-04-20T14:11:20.887Z,64.50
2023-04-20T14:14:07.732Z,64.80
2023-04-20T14:16:54.589Z,64.53
2023-04-20T14:19:41.494Z,63.93
2023-04-20T14:22:34.195Z,57.82
2023-04-20T14:25:21.370Z,57.22
2023-04-20T14:28:08.399Z,57.30
2023-04-20T14:30:55.363Z,56.93
2023-04-20T14:33:44.570Z,58.03
2023-04-20T14:36:32.450Z,58.58
2023-04-20T14:39:20.668Z,59.30
2023-04-20T14:42:07.733Z,59.61
2023-04-20T14:44:54.770Z,59.80
2023-04-20T14:47:41.656Z,59.66
2023-04-20T14:50:28.646Z,59.41
2023-04-20T14:53:15.702Z,59.44
2023-04-20T14:56:03.199Z,59.13
2023-04-20T14:58:50.159Z,59.31
2023-04-20T15:01:37.173Z,59.31
2023-04-20T15:04:25.167Z,59.71
2023-04-20T15:07:12.475Z,59.78
2023-04-20T15:09:59.383Z,59.32
2023-04-20T15:12:47.385Z,59.54
2023-04-20T15:15:47.552Z,59.51
2023-04-20T15:18:35.014Z,59.86
2023-04-20T15:21:22.673Z,59.92
2023-04-20T15:24:09.541Z,60.26
2023-04-20T15:26:56.514Z,60.56
2023-04-20T15:29:43.380Z,60.65
2023-04-20T15:32:30.442Z,61.04
2023-04-20T15:35:17.325Z,61.14
2023-04-20T15:38:04.313Z,61.49
2023-04-20T15:40:51.558Z,61.44
2023-04-20T15:43:39.407Z,61.25
2023-04-20T15:46:26.646Z,61.57
2023-04-20T15:49:13.620Z,61.48
2023-04-20T15:52:00.462Z,61.64
2023-04-20T15:54:48.095Z,61.72
2023-04-20T15:57:34.920Z,61.80
2023-04-20T16:00:21.810Z,61.91
2023-04-20T16:03:09.029Z,61.88
2023-04-20T16:05:56.057Z,61.63
2023-04-20T16:08:42.932Z,61.89
2023-04-20T16:11:30.290Z,61.75
2023-04-20T16:14:17.302Z,62.06
2023-04-20T16:17:04.360Z,61.88
2023-04-20T16:19:51.215Z,62.06
2023-04-20T16:22:38.216Z,62.18
2023-04-20T16:25:26.198Z,61.88
2023-04-20T16:28:13.492Z,61.88
2023-04-20T16:31:00.429Z,62.03
2023-04-20T16:33:47.886Z,62.15
2023-04-20T16:36:34.839Z,62.28
2023-04-20T16:39:21.721Z,62.00
2023-04-20T16:42:08.629Z,61.97
2023-04-20T16:44:55.846Z,61.78
2023-04-20T16:47:42.894Z,61.93
2023-04-20T16:50:29.832Z,62.03
2023-04-20T16:53:16.651Z,61.79
2023-04-20T16:56:03.529Z,61.91
2023-04-20T16:58:50.462Z,61.79
2023-04-20T17:01:37.478Z,61.85
2023-04-20T17:04:24.626Z,61.92
2023-04-20T17:07:13.367Z,61.50
2023-04-20T17:10:00.355Z,61.72
2023-04-20T17:12:47.491Z,61.74
2023-04-20T17:15:34.390Z,61.55
2023-04-20T17:18:21.557Z,61.83
2023-04-20T17:21:08.431Z,61.62
2023-04-20T17:23:56.130Z,61.48
2023-04-20T17:26:42.988Z,59.73
2023-04-20T17:29:34.775Z,59.33
2023-04-20T17:32:21.891Z,59.20
2023-04-20T17:35:09.052Z,60.93
2023-04-20T17:37:55.982Z,61.27
2023-04-20T17:40:42.838Z,61.57
2023-04-20T17:43:29.774Z,61.53
2023-04-20T17:46:16.703Z,61.56
2023-04-20T17:49:03.620Z,61.83
2023-04-20T17:51:50.638Z,62.04
2023-04-20T17:54:37.502Z,61.93
2023-04-20T17:57:24.344Z,61.97
2023-04-20T18:00:11.889Z,61.96
2023-04-20T18:02:59.344Z,61.78
2023-04-20T18:05:46.603Z,61.86
2023-04-20T18:08:34.508Z,62.01
2023-04-20T18:11:21.799Z,61.74
2023-04-20T18:14:08.700Z,61.77
2023-04-20T18:16:56.379Z,61.87
2023-04-20T18:19:43.229Z,62.06
2023-04-20T18:22:30.179Z,62.01
2023-04-20T18:25:18.878Z,61.84
2023-04-20T18:28:05.725Z,62.19
2023-04-20T18:30:52.656Z,62.09
2023-04-20T18:33:39.557Z,62.03
2023-04-20T18:36:26.856Z,62.31
2023-04-20T18:39:14.748Z,62.33
2023-04-20T18:42:02.260Z,62.42
2023-04-20T18:44:52.993Z,62.09
2023-04-20T18:47:39.963Z,62.28
2023-04-20T18:50:26.790Z,62.38
2023-04-20T18:53:14.278Z,62.40
2023-04-20T18:56:03.732Z,62.49
2023-04-20T18:58:50.617Z,62.43
2023-04-20T19:01:40.553Z,62.39
2023-04-20T19:04:27.787Z,62.60
2023-04-20T19:07:14.710Z,62.48
2023-04-20T19:10:01.583Z,62.60
2023-04-20T19:12:48.419Z,62.70
2023-04-20T19:15:35.254Z,62.56
2023-04-20T19:18:22.089Z,62.45
2023-04-20T19:21:08.959Z,62.75
2023-04-20T19:23:56.296Z,62.51
2023-04-20T19:26:43.164Z,62.86
2023-04-20T19:29:30.103Z,62.73
2023-04-20T19:32:17.218Z,62.75
2023-04-20T19:35:04.624Z,62.63
2023-04-20T19:37:51.625Z,62.53
2023-04-20T19:40:38.576Z,62.69
2023-04-20T19:43:25.518Z,62.74
2023-04-20T19:46:12.565Z,63.05
2023-04-20T19:49:00.869Z,62.64
2023-04-20T19:51:47.915Z,63.13
2023-04-20T19:54:34.754Z,63.00
2023-04-20T19:57:21.576Z,62.67
2023-04-20T20:00:09.972Z,62.72
2023-04-20T20:02:56.976Z,62.46
2023-04-20T20:05:44.041Z,62.58
2023-04-20T20:08:31.212Z,62.84
2023-04-20T20:11:18.212Z,62.50
2023-04-20T20:14:05.130Z,62.47
2023-04-20T20:16:51.941Z,62.45
2023-04-20T20:19:39.992Z,62.40
2023-04-20T20:22:26.855Z,62.38
2023-04-20T20:25:15.161Z,62.34
2023-04-20T20:28:02.055Z,62.14
2023-04-20T20:30:48.914Z,62.12
2023-04-20T20:33:35.819Z,62.29
2023-04-20T20:36:22.760Z,62.17
2023-04-20T20:39:09.699Z,62.24
2023-04-20T20:41:57.153Z,62.00
2023-04-20T20:44:44.134Z,62.11
2023-04-20T20:47:31.104Z,62.04
2023-04-20T20:50:19.117Z,62.17
2023-04-20T20:53:05.967Z,62.05
2023-04-20T20:55:53.846Z,62.00
2023-04-20T20:58:40.968Z,62.27
2023-04-20T21:01:27.989Z,62.29
2023-04-20T21:04:15.000Z,62.13
2023-04-20T21:07:01.957Z,62.11
2023-04-20T21:09:48.908Z,61.97
2023-04-20T21:12:35.845Z,62.25
2023-04-20T21:15:22.862Z,62.18
2023-04-20T21:18:09.828Z,62.08
2023-04-20T21:20:56.774Z,62.24
2023-04-20T21:23:43.632Z,61.99
2023-04-20T21:26:35.679Z,62.01
2023-04-20T21:29:22.635Z,62.33
2023-04-20T21:32:09.959Z,62.24
2023-04-20T21:34:56.889Z,62.15
2023-04-20T21:37:44.030Z,62.07
2023-04-20T21:40:30.888Z,62.20
2023-04-20T21:43:17.777Z,62.33
2023-04-20T21:46:04.721Z,62.31
2023-04-20T21:48:51.604Z,62.03
2023-04-20T21:51:38.545Z,62.13
2023-04-20T21:54:25.510Z,62.14
2023-04-20T21:57:12.486Z,62.42
2023-04-20T21:59:59.337Z,62.18
2023-04-20T22:02:46.444Z,62.16
2023-04-20T22:05:33.446Z,62.21
2023-04-20T22:08:23.413Z,62.37
2023-04-20T22:11:10.301Z,61.93
2023-04-20T22:14:00.442Z,61.94
2023-04-20T22:16:47.993Z,62.39
2023-04-20T22:19:36.029Z,62.11
2023-04-20T22:22:22.899Z,62.26
2023-04-20T22:25:09.971Z,62.28
2023-04-20T22:27:57.058Z,62.22
2023-04-20T22:30:44.037Z,62.27
2023-04-20T22:33:30.980Z,62.06
2023-04-20T22:36:18.726Z,62.03
2023-04-20T22:39:05.673Z,62.37
2023-04-20T22:41:52.638Z,62.51
2023-04-20T22:44:39.491Z,62.32
2023-04-20T22:47:26.619Z,62.21
2023-04-20T22:50:13.624Z,62.24
2023-04-20T22:53:00.571Z,62.47
2023-04-20T22:55:47.424Z,62.39
2023-04-20T22:58:34.435Z,62.34
2023-04-20T23:01:21.437Z,62.45
2023-04-20T23:04:08.487Z,62.65
2023-04-20T23:06:56.099Z,62.23
2023-04-20T23:09:44.043Z,62.51
2023-04-20T23:12:32.354Z,62.39
2023-04-20T23:15:19.277Z,62.18
2023-04-20T23:18:06.190Z,62.46
2023-04-20T23:20:53.081Z,62.41
2023-04-20T23:23:40.001Z,62.12
2023-04-20T23:26:27.131Z,62.71
2023-04-20T23:29:13.967Z,62.51
2023-04-20T23:32:01.335Z,62.28
2023-04-20T23:34:48.258Z,62.25
2023-04-20T23:37:35.080Z,62.25
2023-04-20T23:40:21.949Z,62.33
2023-04-20T23:43:08.796Z,62.41
2023-04-20T23:45:55.797Z,62.59
2023-04-20T23:48:42.962Z,62.33
2023-04-20T23:51:29.856Z,62.68
2023-04-20T23:54:16.756Z,62.66
2023-04-20T23:57:03.671Z,62.75
2023-04-20T23:59:50.477Z,62.43
